Time;durP1;ratioP1;P1;durP2;ratioP2;P2;SDS_P1;SDS_P2;PMS_P1;PMS_P2;Temp;Humidity;BMP_temperature;BMP_pressure;BME280_temperature;BME280_humidity;BME280_pressure;Samples;Min_cycle;Max_cycle;Signal;HPM_P1;HPM_P2
2021/06/16 00:00:17;;;;;;;3.00;2.80;;;20.60;97.40;;;;;;5012152;28;20454;-58
2021/06/16 00:02:44;;;;;;;3.10;2.90;;;20.60;97.70;;;;;;5013310;28;20500;-57
2021/06/16 00:05:14;;;;;;;3.70;3.40;;;20.50;97.90;;;;;;5014499;28;20449;-57
2021/06/16 00:07:42;;;;;;;4.27;2.80;;;20.40;98.10;;;;;;5012785;28;20500;-57
2021/06/16 00:10:11;;;;;;;4.33;3.60;;;20.40;98.30;;;;;;5014585;28;20453;-57
2021/06/16 00:12:39;;;;;;;4.33;3.00;;;20.40;98.60;;;;;;5014163;28;20449;-57
2021/06/16 00:15:10;;;;;;;5.90;3.50;;;20.30;98.40;;;;;;5013599;28;20449;-57
2021/06/16 00:17:37;;;;;;;3.33;3.03;;;20.20;98.40;;;;;;5011081;28;20555;-58
2021/06/16 00:20:05;;;;;;;3.50;3.20;;;20.10;98.70;;;;;;5003993;28;20513;-57
2021/06/16 00:22:32;;;;;;;6.73;4.20;;;20.20;99.00;;;;;;4996523;28;20543;-57
2021/06/16 00:25:00;;;;;;;8.10;4.13;;;20.20;99.00;;;;;;5014323;28;20457;-58
2021/06/16 00:27:27;;;;;;;3.47;3.07;;;20.20;99.10;;;;;;5013677;28;20556;-56
2021/06/16 00:29:54;;;;;;;5.37;4.60;;;20.30;99.50;;;;;;5013968;28;20445;-58
2021/06/16 00:32:21;;;;;;;6.50;3.90;;;20.20;99.70;;;;;;4995212;28;20878;-57
2021/06/16 00:34:48;;;;;;;4.57;3.80;;;20.00;99.90;;;;;;5001403;28;21017;-57
2021/06/16 00:37:15;;;;;;;6.07;4.10;;;20.00;99.90;;;;;;5013737;28;20987;-57
2021/06/16 00:39:42;;;;;;;5.30;3.63;;;20.00;99.90;;;;;;5013138;28;20449;-57
2021/06/16 00:42:11;;;;;;;4.67;3.90;;;19.90;99.90;;;;;;5013038;28;21010;-58
2021/06/16 00:44:38;;;;;;;5.90;4.10;;;19.90;99.90;;;;;;5012557;28;20508;-57
2021/06/16 00:47:05;;;;;;;4.73;4.20;;;19.90;99.90;;;;;;5006903;28;20469;-57
2021/06/16 00:49:32;;;;;;;4.37;3.80;;;19.90;99.90;;;;;;5013103;28;20457;-57
2021/06/16 00:51:59;;;;;;;4.13;3.73;;;19.80;99.90;;;;;;5013426;28;20453;-57
2021/06/16 00:54:26;;;;;;;5.17;4.27;;;19.90;99.90;;;;;;4997239;28;20462;-57
2021/06/16 00:56:53;;;;;;;3.90;3.40;;;19.90;99.90;;;;;;5011536;28;20493;-56
2021/06/16 00:59:21;;;;;;;4.47;3.77;;;19.90;99.90;;;;;;5013559;28;20891;-58
2021/06/16 01:01:49;;;;;;;3.50;3.20;;;19.90;99.90;;;;;;4995761;28;20454;-57
2021/06/16 01:04:22;;;;;;;5.20;3.63;;;19.90;99.90;;;;;;4994074;28;20455;-58
2021/06/16 01:06:52;;;;;;;4.63;3.13;;;19.90;99.90;;;;;;4993798;28;20490;-57
2021/06/16 01:09:23;;;;;;;4.20;3.17;;;19.90;99.90;;;;;;4995593;28;20947;-57
2021/06/16 01:12:15;;;;;;;3.83;3.30;;;19.90;99.90;;;;;;5012347;28;20877;-58
2021/06/16 01:14:50;;;;;;;4.67;3.00;;;19.80;99.90;;;;;;5013221;28;20454;-57
2021/06/16 01:17:22;;;;;;;3.50;3.20;;;19.80;99.90;;;;;;5012897;28;20484;-57
2021/06/16 01:20:17;;;;;;;3.47;3.10;;;19.80;99.90;;;;;;5013238;28;20445;-57
2021/06/16 01:22:51;;;;;;;3.80;3.03;;;19.70;99.90;;;;;;5012780;28;20943;-57
2021/06/16 01:25:25;;;;;;;4.70;3.30;;;19.60;99.90;;;;;;5013052;28;20458;-57
2021/06/16 01:27:54;;;;;;;3.80;3.37;;;19.50;99.90;;;;;;5012659;28;20503;-57
2021/06/16 01:30:22;;;;;;;3.03;2.83;;;19.50;99.90;;;;;;5013009;28;20496;-57
2021/06/16 01:32:49;;;;;;;3.50;3.20;;;19.50;99.90;;;;;;5012627;28;20952;-57
2021/06/16 01:35:16;;;;;;;4.60;3.30;;;19.50;99.90;;;;;;5011961;28;21016;-56
2021/06/16 01:37:43;;;;;;;3.67;3.20;;;19.50;99.90;;;;;;5012613;28;20842;-55
2021/06/16 01:40:13;;;;;;;6.00;3.77;;;19.40;99.90;;;;;;5012696;28;20507;-57
2021/06/16 01:42:41;;;;;;;5.27;3.57;;;19.50;99.90;;;;;;5012598;28;20454;-57
2021/06/16 01:45:11;;;;;;;3.90;3.60;;;19.40;99.90;;;;;;5011952;28;20512;-57
2021/06/16 01:47:38;;;;;;;4.17;3.83;;;19.40;99.90;;;;;;5012556;28;20473;-57
2021/06/16 01:50:06;;;;;;;3.73;3.43;;;19.30;99.90;;;;;;5012516;28;20453;-58
2021/06/16 01:52:35;;;;;;;3.80;3.50;;;19.30;99.90;;;;;;5007717;28;20505;-57
2021/06/16 01:55:04;;;;;;;4.87;3.70;;;19.30;99.90;;;;;;5000462;28;20518;-57
2021/06/16 01:57:31;;;;;;;4.17;3.77;;;19.30;99.90;;;;;;5011467;28;21005;-58
2021/06/16 02:00:01;;;;;;;4.20;3.80;;;19.40;99.90;;;;;;5004746;28;20450;-57
2021/06/16 02:02:30;;;;;;;3.87;3.40;;;19.40;99.90;;;;;;4992527;28;20533;-57
2021/06/16 02:04:58;;;;;;;4.10;3.60;;;19.30;99.90;;;;;;4995241;28;20465;-57
2021/06/16 02:07:29;;;;;;;4.47;3.70;;;19.30;99.90;;;;;;5005647;28;20470;-57
2021/06/16 02:09:57;;;;;;;4.70;3.47;;;19.30;99.90;;;;;;4993823;28;20517;-57
2021/06/16 02:12:25;;;;;;;3.60;3.30;;;19.30;99.90;;;;;;5000055;28;20446;-57
2021/06/16 02:14:57;;;;;;;3.87;3.50;;;19.30;99.90;;;;;;5012137;28;20453;-57
2021/06/16 02:17:29;;;;;;;4.80;3.30;;;19.30;99.90;;;;;;5012039;28;20489;-57
2021/06/16 02:19:58;;;;;;;3.50;3.20;;;19.30;99.90;;;;;;5011708;28;20512;-54
2021/06/16 02:22:26;;;;;;;3.47;3.17;;;19.30;99.90;;;;;;5003319;28;20458;-54
2021/06/16 02:24:53;;;;;;;5.03;3.10;;;19.30;99.90;;;;;;4992557;28;20537;-54
2021/06/16 02:27:20;;;;;;;4.97;3.07;;;19.30;99.90;;;;;;4992295;28;20477;-54
2021/06/16 02:29:48;;;;;;;4.57;3.33;;;19.20;99.90;;;;;;5005481;28;20453;-54
2021/06/16 02:32:15;;;;;;;3.40;3.10;;;19.30;99.90;;;;;;5011895;28;20450;-58
2021/06/16 02:34:42;;;;;;;4.50;3.40;;;19.30;99.90;;;;;;5011216;28;20456;-57
2021/06/16 02:37:13;;;;;;;5.20;3.30;;;19.30;99.90;;;;;;5011354;28;20477;-57
2021/06/16 02:39:43;;;;;;;7.87;3.67;;;19.30;99.90;;;;;;5011608;28;20511;-57
2021/06/16 02:42:11;;;;;;;3.70;3.37;;;19.20;99.90;;;;;;5011648;28;20504;-57
2021/06/16 02:44:43;;;;;;;4.13;3.73;;;19.10;99.90;;;;;;5001157;28;20523;-57
2021/06/16 02:47:10;;;;;;;3.80;3.10;;;19.20;99.90;;;;;;5014632;28;20468;-57
2021/06/16 02:49:42;;;;;;;3.37;3.07;;;19.10;99.90;;;;;;5015085;28;20449;-57
2021/06/16 02:52:13;;;;;;;3.67;3.37;;;19.10;99.90;;;;;;5015683;28;20541;-57
2021/06/16 02:54:43;;;;;;;3.63;3.30;;;19.00;99.90;;;;;;5016097;28;20487;-57
2021/06/16 02:57:13;;;;;;;4.47;4.07;;;19.00;99.90;;;;;;5015412;28;20891;-58
2021/06/16 02:59:42;;;;;;;5.00;3.57;;;18.90;99.90;;;;;;5011337;28;20503;-56
2021/06/16 03:02:10;;;;;;;5.43;3.67;;;18.90;99.90;;;;;;5009926;28;20461;-58
2021/06/16 03:04:37;;;;;;;3.37;3.00;;;18.90;99.90;;;;;;5001312;28;20456;-57
2021/06/16 03:07:05;;;;;;;3.50;3.20;;;18.90;99.90;;;;;;5014643;28;20987;-57
2021/06/16 03:09:34;;;;;;;3.47;2.97;;;18.90;99.90;;;;;;5006974;28;20513;-56
2021/06/16 03:12:02;;;;;;;3.67;3.30;;;18.80;99.90;;;;;;4995852;28;20454;-57
2021/06/16 03:14:31;;;;;;;4.90;3.80;;;18.80;99.90;;;;;;4998716;28;20462;-56
2021/06/16 03:16:59;;;;;;;3.97;2.87;;;18.80;99.90;;;;;;5015562;28;20516;-57
2021/06/16 03:19:26;;;;;;;3.87;3.27;;;18.80;99.90;;;;;;5012935;28;20508;-57
2021/06/16 03:21:56;;;;;;;4.20;3.57;;;18.70;99.90;;;;;;5015108;28;20449;-56
2021/06/16 03:24:24;;;;;;;4.23;3.50;;;18.70;99.90;;;;;;5014998;28;20454;-57
2021/06/16 03:26:53;;;;;;;4.37;3.47;;;18.60;99.90;;;;;;5011637;28;20543;-58
2021/06/16 03:29:21;;;;;;;3.43;3.20;;;18.60;99.90;;;;;;5007876;28;20497;-57
2021/06/16 03:31:48;;;;;;;4.90;3.40;;;18.60;99.90;;;;;;5014934;28;20449;-57
2021/06/16 03:34:15;;;;;;;3.63;2.93;;;18.60;99.90;;;;;;5013731;28;20946;-57
2021/06/16 03:36:46;;;;;;;4.03;3.40;;;18.50;99.90;;;;;;5013138;28;20477;-54
2021/06/16 03:39:15;;;;;;;4.00;3.60;;;18.50;99.90;;;;;;5003556;28;20927;-56
2021/06/16 03:41:44;;;;;;;4.47;3.83;;;18.40;99.90;;;;;;5014836;28;20449;-57
2021/06/16 03:44:13;;;;;;;5.37;3.90;;;18.40;99.90;;;;;;5012539;28;20533;-56
2021/06/16 03:46:42;;;;;;;4.73;3.60;;;18.40;99.90;;;;;;5013719;28;20481;-57
2021/06/16 03:49:12;;;;;;;3.80;3.50;;;18.50;99.90;;;;;;5014550;28;20951;-57
2021/06/16 03:51:41;;;;;;;3.97;3.60;;;18.50;99.90;;;;;;5014631;28;20449;-56
2021/06/16 03:54:12;;;;;;;4.40;3.90;;;18.50;99.90;;;;;;5001707;28;20458;-56
2021/06/16 03:56:39;;;;;;;4.43;3.50;;;18.40;99.90;;;;;;4997868;28;20548;-57
2021/06/16 03:59:07;;;;;;;4.83;3.90;;;18.20;99.90;;;;;;5000249;28;20474;-56
2021/06/16 04:01:37;;;;;;;5.80;4.00;;;18.20;99.90;;;;;;5005538;28;20454;-57
2021/06/16 04:04:05;;;;;;;5.00;4.00;;;18.30;99.90;;;;;;5014071;28;20450;-57
2021/06/16 04:06:32;;;;;;;4.20;3.90;;;18.30;99.90;;;;;;5014311;28;20477;-57
2021/06/16 04:09:00;;;;;;;5.53;3.80;;;18.40;99.90;;;;;;5014561;28;20504;-57
2021/06/16 04:11:27;;;;;;;6.87;3.87;;;18.50;99.90;;;;;;5013794;28;20448;-57
2021/06/16 04:13:56;;;;;;;5.30;3.40;;;18.50;99.90;;;;;;5002637;28;20862;-56
2021/06/16 04:16:24;;;;;;;4.53;4.13;;;18.50;99.90;;;;;;5013840;28;20552;-56
2021/06/16 04:18:53;;;;;;;6.07;3.83;;;18.50;99.90;;;;;;5013776;28;20487;-56
2021/06/16 04:21:21;;;;;;;4.00;3.60;;;18.60;99.90;;;;;;5014061;28;20539;-57
2021/06/16 04:23:49;;;;;;;7.40;4.10;;;18.70;99.90;;;;;;5013630;28;20897;-57
2021/06/16 04:26:16;;;;;;;4.53;4.07;;;18.70;99.90;;;;;;5013828;28;20520;-57
2021/06/16 04:28:43;;;;;;;5.20;3.80;;;18.70;99.90;;;;;;5004519;28;20447;-57
2021/06/16 04:31:11;;;;;;;6.23;4.20;;;18.80;99.90;;;;;;5000837;28;20503;-56
2021/06/16 04:33:38;;;;;;;8.70;4.47;;;18.90;99.90;;;;;;5013015;28;20453;-56
2021/06/16 04:36:08;;;;;;;4.50;4.10;;;18.90;99.90;;;;;;5008393;28;20511;-57
2021/06/16 04:38:36;;;;;;;10.43;5.53;;;18.90;99.90;;;;;;4994559;28;20516;-54
2021/06/16 04:41:05;;;;;;;5.27;4.00;;;19.00;99.90;;;;;;4996691;28;20817;-55
2021/06/16 04:43:32;;;;;;;6.00;5.27;;;19.10;99.90;;;;;;4993940;28;20454;-57
2021/06/16 04:45:59;;;;;;;6.67;3.97;;;19.10;99.90;;;;;;5002830;28;20461;-57
2021/06/16 04:48:27;;;;;;;5.57;4.20;;;19.10;99.90;;;;;;4996825;28;20594;-54
2021/06/16 04:50:54;;;;;;;6.20;4.27;;;19.30;99.90;;;;;;5002433;28;20449;-55
2021/06/16 04:53:22;;;;;;;6.50;4.30;;;19.30;99.90;;;;;;5011856;28;20454;-54
2021/06/16 04:55:49;;;;;;;5.53;5.03;;;19.40;99.90;;;;;;5002614;28;20457;-54
2021/06/16 04:58:16;;;;;;;6.10;4.13;;;19.60;99.90;;;;;;5013455;28;20485;-55
2021/06/16 05:00:43;;;;;;;10.93;4.17;;;19.80;99.90;;;;;;5000717;28;20504;-55
2021/06/16 05:03:11;;;;;;;4.80;3.70;;;20.10;99.90;;;;;;5013107;28;20939;-56
2021/06/16 05:05:38;;;;;;;4.47;4.00;;;20.50;99.90;;;;;;5003808;28;20501;-57
2021/06/16 05:08:05;;;;;;;4.23;3.83;;;21.10;99.90;;;;;;4993470;28;20482;-56
2021/06/16 05:10:33;;;;;;;6.53;4.43;;;21.60;99.90;;;;;;4993812;28;20685;-57
2021/06/16 05:13:01;;;;;;;6.60;3.97;;;22.50;99.90;;;;;;4999477;28;20507;-57
2021/06/16 05:15:28;;;;;;;7.63;4.33;;;23.20;99.90;;;;;;5010430;28;20476;-57
2021/06/16 05:17:55;;;;;;;8.10;4.13;;;23.90;99.30;;;;;;4999861;28;20552;-56
2021/06/16 05:20:24;;;;;;;4.90;3.90;;;24.40;98.20;;;;;;5006187;28;21030;-57
2021/06/16 05:22:51;;;;;;;5.10;3.90;;;24.90;97.20;;;;;;5012797;28;20457;-57
2021/06/16 05:25:18;;;;;;;5.70;4.00;;;25.30;96.50;;;;;;5012992;28;20845;-58
2021/06/16 05:27:47;;;;;;;5.73;4.30;;;25.60;96.50;;;;;;5012879;28;20531;-57
2021/06/16 05:30:16;;;;;;;6.47;4.23;;;26.00;95.30;;;;;;5013002;28;20610;-57
2021/06/16 05:32:43;;;;;;;6.40;4.40;;;26.60;95.60;;;;;;5012071;28;20460;-58
2021/06/16 05:35:10;;;;;;;6.77;3.70;;;27.10;95.00;;;;;;5011237;28;20511;-58
2021/06/16 05:37:38;;;;;;;6.20;4.20;;;27.50;95.00;;;;;;4996316;28;20924;-57
2021/06/16 05:40:06;;;;;;;7.73;4.27;;;27.70;93.10;;;;;;4993006;28;20486;-59
2021/06/16 05:42:33;;;;;;;6.43;3.70;;;27.80;92.40;;;;;;4992766;28;20524;-57
2021/06/16 05:45:02;;;;;;;4.77;4.13;;;27.70;92.00;;;;;;4993100;28;20875;-57
2021/06/16 05:47:29;;;;;;;6.53;3.90;;;27.20;93.10;;;;;;4992777;28;20541;-59
2021/06/16 05:49:56;;;;;;;4.40;4.03;;;27.40;93.00;;;;;;5005778;28;20460;-57
2021/06/16 05:52:23;;;;;;;4.23;3.80;;;27.50;93.10;;;;;;5011389;28;20458;-57
2021/06/16 05:54:50;;;;;;;4.00;3.70;;;27.70;92.20;;;;;;5012343;28;20801;-57
2021/06/16 05:57:17;;;;;;;8.27;4.37;;;27.80;92.90;;;;;;5010931;28;20515;-57
2021/06/16 05:59:44;;;;;;;9.10;3.60;;;27.80;93.00;;;;;;5011877;28;20481;-58
2021/06/16 06:02:12;;;;;;;4.67;3.83;;;28.00;92.10;;;;;;5012139;28;20453;-57
2021/06/16 06:04:39;;;;;;;6.07;3.70;;;27.90;91.80;;;;;;5011578;28;20516;-58
2021/06/16 06:07:06;;;;;;;4.10;3.70;;;27.90;92.10;;;;;;4994951;28;20569;-58
2021/06/16 06:09:34;;;;;;;6.83;3.70;;;28.20;92.20;;;;;;4996650;28;20508;-59
2021/06/16 06:12:01;;;;;;;6.20;3.30;;;28.40;90.90;;;;;;5011979;28;20456;-58
2021/06/16 06:14:28;;;;;;;4.70;3.50;;;28.70;91.80;;;;;;5011036;28;20512;-59
2021/06/16 06:16:55;;;;;;;5.43;3.53;;;29.00;89.50;;;;;;5011645;28;20470;-57
2021/06/16 06:19:23;;;;;;;5.20;3.90;;;29.30;89.90;;;;;;5012062;28;20489;-59
2021/06/16 06:21:50;;;;;;;3.80;3.50;;;29.30;86.50;;;;;;5010911;28;20507;-58
2021/06/16 06:24:17;;;;;;;3.60;3.30;;;28.80;87.20;;;;;;5012087;28;20981;-58
2021/06/16 06:26:44;;;;;;;5.23;3.53;;;28.70;88.80;;;;;;5011403;28;20474;-58
2021/06/16 06:29:11;;;;;;;3.90;3.50;;;29.00;89.90;;;;;;5012222;28;20441;-58
2021/06/16 06:31:38;;;;;;;3.70;3.40;;;29.20;86.50;;;;;;5010104;28;20455;-57
2021/06/16 06:34:05;;;;;;;4.80;3.73;;;28.90;88.20;;;;;;5001573;28;20455;-57
2021/06/16 06:36:34;;;;;;;7.40;4.00;;;29.30;90.70;;;;;;5011409;28;20865;-58
2021/06/16 06:39:01;;;;;;;7.03;3.73;;;29.70;89.20;;;;;;5011433;28;20900;-58
2021/06/16 06:41:28;;;;;;;4.70;3.30;;;29.70;85.90;;;;;;5010839;28;20454;-57
2021/06/16 06:43:55;;;;;;;3.97;3.67;;;29.20;86.80;;;;;;5011694;28;20939;-58
2021/06/16 06:46:22;;;;;;;4.97;3.60;;;29.30;90.00;;;;;;5011677;28;20940;-58
2021/06/16 06:48:49;;;;;;;4.97;3.93;;;29.80;90.10;;;;;;5011821;28;20449;-58
2021/06/16 06:51:16;;;;;;;3.80;3.40;;;30.10;88.70;;;;;;5011600;28;20515;-60
2021/06/16 06:53:44;;;;;;;4.00;3.53;;;30.20;84.90;;;;;;5011588;28;21005;-58
2021/06/16 06:56:11;;;;;;;4.80;3.90;;;30.60;87.70;;;;;;5010429;28;20450;-58
2021/06/16 06:58:38;;;;;;;4.50;4.10;;;30.90;84.60;;;;;;5004428;28;20469;-58
2021/06/16 07:01:05;;;;;;;5.47;4.00;;;30.70;84.10;;;;;;5002403;28;20461;-58
2021/06/16 07:03:32;;;;;;;4.60;4.10;;;30.80;86.60;;;;;;5003284;28;20473;-59
2021/06/16 07:05:59;;;;;;;4.63;3.97;;;31.10;87.70;;;;;;5002416;28;20515;-57
2021/06/16 07:08:26;;;;;;;5.60;3.73;;;31.40;82.80;;;;;;5003341;28;20991;-58
2021/06/16 07:10:55;;;;;;;4.50;3.93;;;31.30;83.50;;;;;;5001849;28;20462;-58
2021/06/16 07:13:22;;;;;;;5.87;4.00;;;31.30;86.30;;;;;;4998438;28;20454;-58
2021/06/16 07:15:49;;;;;;;5.23;4.07;;;31.20;82.10;;;;;;5002790;28;20457;-59
2021/06/16 07:18:16;;;;;;;4.53;3.87;;;30.90;82.10;;;;;;5004157;28;20543;-58
2021/06/16 07:20:43;;;;;;;7.27;3.80;;;31.20;83.50;;;;;;5002462;28;21186;-58
2021/06/16 07:23:10;;;;;;;3.90;3.60;;;31.60;82.40;;;;;;5001460;28;20939;-58
2021/06/16 07:25:37;;;;;;;4.57;3.87;;;31.90;83.60;;;;;;4997856;28;20514;-59
2021/06/16 07:28:06;;;;;;;4.63;4.07;;;32.00;80.80;;;;;;5006202;28;20600;-58
2021/06/16 07:30:33;;;;;;;6.77;4.07;;;32.10;84.10;;;;;;5003261;28;20515;-59
2021/06/16 07:33:00;;;;;;;4.30;3.90;;;32.50;83.10;;;;;;5011293;28;20449;-58
2021/06/16 07:35:27;;;;;;;4.70;4.13;;;32.30;82.00;;;;;;5014714;28;20899;-60
2021/06/16 07:37:54;;;;;;;5.57;4.30;;;32.50;83.10;;;;;;5014607;28;20532;-59
2021/06/16 07:40:21;;;;;;;6.10;4.10;;;32.80;80.80;;;;;;5014536;28;20481;-59
2021/06/16 07:42:48;;;;;;;6.43;4.43;;;32.60;81.60;;;;;;4999939;28;20453;-59
2021/06/16 07:45:17;;;;;;;6.57;4.70;;;32.70;85.80;;;;;;5014673;28;20955;-59
2021/06/16 07:47:44;;;;;;;7.47;3.83;;;32.40;82.20;;;;;;5013569;28;20477;-58
2021/06/16 07:50:12;;;;;;;9.07;4.90;;;32.30;80.60;;;;;;5010891;28;20449;-59
2021/06/16 07:52:39;;;;;;;9.47;4.27;;;32.60;81.60;;;;;;5014476;28;20453;-57
2021/06/16 07:55:07;;;;;;;7.90;4.63;;;33.30;80.80;;;;;;5013860;28;20461;-58
2021/06/16 07:57:34;;;;;;;6.13;4.60;;;32.80;80.50;;;;;;5012134;28;20469;-59
2021/06/16 08:00:01;;;;;;;6.37;4.50;;;32.80;84.40;;;;;;5012857;28;20543;-58
2021/06/16 08:02:30;;;;;;;5.80;4.27;;;33.40;83.40;;;;;;5009345;28;20460;-59
2021/06/16 08:04:58;;;;;;;18.73;5.00;;;32.80;84.00;;;;;;5014446;28;21010;-58
2021/06/16 08:07:25;;;;;;;4.30;4.00;;;33.10;83.80;;;;;;5013864;28;20485;-58
2021/06/16 08:09:52;;;;;;;4.87;4.27;;;33.60;82.60;;;;;;5009595;28;20519;-58
2021/06/16 08:12:19;;;;;;;11.47;4.73;;;33.10;84.60;;;;;;5013650;28;20452;-59
2021/06/16 08:14:46;;;;;;;5.07;4.57;;;33.20;77.20;;;;;;5034959;22;20833;-51
2021/06/16 08:17:13;;;;;;;6.33;4.30;;;33.40;75.80;;;;;;5020721;28;20449;-52
2021/06/16 08:19:42;;;;;;;4.53;4.13;;;33.40;76.30;;;;;;5021752;28;20503;-52
2021/06/16 08:22:11;;;;;;;6.30;4.10;;;33.60;77.30;;;;;;5013756;28;20457;-52
2021/06/16 08:24:38;;;;;;;4.47;4.07;;;33.60;76.60;;;;;;5013842;28;20481;-52
2021/06/16 08:27:06;;;;;;;5.40;3.97;;;33.60;77.00;;;;;;5013982;28;20453;-51
2021/06/16 08:29:33;;;;;;;6.03;4.03;;;33.30;75.30;;;;;;5013676;28;20445;-52
2021/06/16 08:32:00;;;;;;;6.17;4.27;;;32.90;75.30;;;;;;5013276;28;21013;-52
2021/06/16 08:34:27;;;;;;;4.30;3.90;;;33.30;77.90;;;;;;5021280;28;21059;-52
2021/06/16 08:36:56;;;;;;;7.83;3.97;;;33.40;76.90;;;;;;5016806;28;20457;-52
2021/06/16 08:39:24;;;;;;;6.07;3.73;;;33.60;81.30;;;;;;5018055;28;20479;-51
2021/06/16 08:41:52;;;;;;;4.77;4.40;;;34.00;80.60;;;;;;4994259;28;20493;-52
2021/06/16 08:44:19;;;;;;;4.90;4.27;;;33.10;77.50;;;;;;5009394;28;20446;-52
2021/06/16 08:46:48;;;;;;;6.83;4.80;;;33.00;78.20;;;;;;5018403;28;20523;-51
2021/06/16 08:49:15;;;;;;;5.80;4.70;;;33.00;75.40;;;;;;5015787;28;20476;-52
2021/06/16 08:51:42;;;;;;;6.43;4.37;;;33.40;75.60;;;;;;5029670;28;20946;-52
2021/06/16 08:54:11;;;;;;;7.07;4.20;;;33.50;76.90;;;;;;5019060;28;20461;-52
2021/06/16 08:56:38;;;;;;;5.07;4.10;;;33.80;81.30;;;;;;5013557;28;20454;-52
2021/06/16 08:59:06;;;;;;;8.23;4.80;;;33.70;75.80;;;;;;5013533;28;20503;-52
2021/06/16 09:01:32;;;;;;;18.23;7.77;;;34.10;81.40;;;;;;5013375;28;20504;-51
2021/06/16 09:04:01;;;;;;;11.23;5.37;;;34.20;81.30;;;;;;5013136;28;20450;-52
2021/06/16 09:06:29;;;;;;;4.90;4.53;;;34.30;76.60;;;;;;5013011;28;20496;-52
2021/06/16 09:09:00;;;;;;;5.67;4.70;;;34.10;78.80;;;;;;5013328;28;20453;-51
2021/06/16 09:11:47;;;;;;;4.97;4.57;;;34.30;78.70;;;;;;5013182;28;20449;-51
2021/06/16 09:14:16;;;;;;;5.80;4.80;;;34.70;81.10;;;;;;5012684;28;20461;-52
2021/06/16 09:16:43;;;;;;;5.40;4.23;;;34.30;79.60;;;;;;5013024;28;20452;-52
2021/06/16 09:19:21;;;;;;;288.43;25.97;;;34.60;81.30;;;;;;5013083;28;20512;-52
2021/06/16 09:21:49;;;;;;;89.70;16.90;;;34.40;84.90;;;;;;5012899;28;20496;-51
2021/06/16 09:24:17;;;;;;;10.37;5.40;;;32.60;89.80;;;;;;5012893;28;20485;-51
2021/06/16 09:26:46;;;;;;;11.30;6.73;;;32.90;84.40;;;;;;5013052;28;20940;-52
2021/06/16 09:29:14;;;;;;;24.20;7.27;;;32.70;88.20;;;;;;5012441;28;20449;-52
2021/06/16 09:31:42;;;;;;;8.90;5.40;;;32.90;90.70;;;;;;5012160;28;20462;-51
2021/06/16 09:34:12;;;;;;;6.70;5.30;;;33.30;85.00;;;;;;5004463;28;20876;-51
2021/06/16 09:36:52;;;;;;;7.57;6.00;;;32.40;88.80;;;;;;4993390;28;20458;-51
2021/06/16 09:39:21;;;;;;;8.23;5.50;;;31.30;88.60;;;;;;5010115;28;20450;-51
2021/06/16 09:42:01;;;;;;;6.17;4.87;;;31.20;91.70;;;;;;5012434;28;20449;-51
2021/06/16 09:44:43;;;;;;;6.70;5.30;;;31.70;88.90;;;;;;5012546;28;20469;-52
2021/06/16 09:47:11;;;;;;;7.40;6.63;;;31.90;89.60;;;;;;5012343;28;20450;-51
2021/06/16 09:49:56;;;;;;;13.93;6.10;;;30.70;91.90;;;;;;5010646;28;20521;-52
2021/06/16 09:52:38;;;;;;;7.50;5.80;;;31.00;91.50;;;;;;4992982;28;20441;-51
2021/06/16 09:55:07;;;;;;;7.03;6.33;;;31.50;92.50;;;;;;5010301;28;20473;-51
2021/06/16 09:57:36;;;;;;;6.70;5.80;;;31.20;92.00;;;;;;5011940;28;20441;-51
2021/06/16 10:00:08;;;;;;;8.90;6.73;;;31.40;92.80;;;;;;5012176;28;20481;-52
2021/06/16 10:02:40;;;;;;;6.43;5.70;;;30.80;92.60;;;;;;5012189;28;20474;-51
2021/06/16 10:05:11;;;;;;;8.80;6.20;;;31.10;92.00;;;;;;5011959;28;20473;-52
2021/06/16 10:07:38;;;;;;;7.27;6.40;;;31.80;91.10;;;;;;5012379;28;20450;-52
2021/06/16 10:10:07;;;;;;;6.83;6.10;;;31.20;91.90;;;;;;5012401;28;20441;-52
2021/06/16 10:12:38;;;;;;;7.93;6.63;;;31.20;93.00;;;;;;5012018;28;20481;-52
2021/06/16 10:15:07;;;;;;;7.07;6.40;;;30.60;92.80;;;;;;5011404;28;20481;-52
2021/06/16 10:17:34;;;;;;;14.23;6.23;;;30.90;92.80;;;;;;5011118;28;20449;-51
2021/06/16 10:20:01;;;;;;;7.37;6.20;;;31.00;92.90;;;;;;5011961;28;20858;-51
2021/06/16 10:22:29;;;;;;;8.47;5.83;;;31.50;92.20;;;;;;5011839;28;20445;-51
2021/06/16 10:24:56;;;;;;;6.20;5.60;;;31.10;93.20;;;;;;5011904;28;20473;-51
2021/06/16 10:27:31;;;;;;;12.00;5.83;;;30.00;93.90;;;;;;5011891;28;20500;-51
2021/06/16 10:30:07;;;;;;;7.53;6.20;;;30.00;93.40;;;;;;5011980;28;20511;-51
2021/06/16 10:32:41;;;;;;;6.13;5.63;;;29.40;93.80;;;;;;5011989;28;20448;-51
2021/06/16 10:35:10;;;;;;;7.70;5.50;;;29.90;93.00;;;;;;5005160;28;20513;-52
2021/06/16 10:37:39;;;;;;;7.77;5.57;;;30.40;93.80;;;;;;4992301;28;20454;-52
2021/06/16 10:40:29;;;;;;;9.13;6.03;;;29.80;95.30;;;;;;4992156;28;20576;-51
2021/06/16 10:43:26;;;;;;;7.10;5.23;;;30.00;95.40;;;;;;4992041;28;21202;-51
2021/06/16 10:46:06;;;;;;;5.70;5.20;;;29.80;95.00;;;;;;5011612;28;20555;-51
2021/06/16 10:49:01;;;;;;;5.27;4.87;;;30.00;92.50;;;;;;5011678;28;20975;-51
2021/06/16 10:51:41;;;;;;;6.53;4.43;;;30.10;92.10;;;;;;5009264;28;20435;-51
2021/06/16 10:54:23;;;;;;;5.60;4.37;;;30.20;91.50;;;;;;5010750;28;20252;-51
2021/06/16 10:56:58;;;;;;;4.10;3.80;;;30.70;90.00;;;;;;5010981;28;20457;-51
2021/06/16 11:00:04;;;;;;;5.30;4.20;;;31.40;90.40;;;;;;5011773;28;20449;-51
2021/06/16 11:03:03;;;;;;;4.10;3.77;;;31.00;86.00;;;;;;5005444;28;20445;-51
2021/06/16 11:05:47;;;;;;;4.70;4.30;;;31.40;84.60;;;;;;4992022;28;20521;-52
2021/06/16 11:08:51;;;;;;;6.73;4.03;;;31.60;84.10;;;;;;4995739;28;20452;-50
2021/06/16 11:11:18;;;;;;;6.47;4.47;;;31.70;90.20;;;;;;4995387;28;20886;-51
2021/06/16 11:13:45;;;;;;;4.30;3.87;;;31.90;86.10;;;;;;5000448;28;20453;-50
2021/06/16 11:16:51;;;;;;;4.37;3.97;;;30.00;89.60;;;;;;5014721;28;20473;-51
2021/06/16 11:19:25;;;;;;;5.23;3.80;;;29.80;91.30;;;;;;5015297;28;20449;-50
2021/06/16 11:21:54;;;;;;;10.50;4.30;;;29.80;90.60;;;;;;5014693;28;20551;-50
2021/06/16 11:24:23;;;;;;;4.40;4.00;;;29.90;91.10;;;;;;5014751;28;20523;-50
2021/06/16 11:26:51;;;;;;;4.80;4.30;;;29.80;88.90;;;;;;5014866;28;20870;-51
2021/06/16 11:29:56;;;;;;;5.20;3.60;;;29.70;92.80;;;;;;5014946;28;20453;-51
2021/06/16 11:32:23;;;;;;;7.43;3.83;;;29.50;91.60;;;;;;5014857;28;20453;-50
2021/06/16 11:34:53;;;;;;;8.13;3.90;;;29.40;91.00;;;;;;5014770;28;20481;-51
2021/06/16 11:37:57;;;;;;;4.67;4.17;;;29.40;91.60;;;;;;5015104;28;20503;-51
2021/06/16 11:40:26;;;;;;;3.67;3.47;;;29.20;90.50;;;;;;5014700;28;20905;-51
2021/06/16 11:42:53;;;;;;;6.60;3.93;;;29.20;91.30;;;;;;5014975;28;20449;-51
2021/06/16 11:45:20;;;;;;;4.30;4.00;;;29.20;91.90;;;;;;5014350;28;21013;-51
2021/06/16 11:47:53;;;;;;;4.47;4.13;;;29.30;91.10;;;;;;5014279;28;20959;-50
2021/06/16 11:50:29;;;;;;;4.17;3.87;;;29.30;90.00;;;;;;5014699;28;20473;-51
2021/06/16 11:52:57;;;;;;;4.33;3.60;;;29.50;90.80;;;;;;5014341;28;20943;-51
2021/06/16 11:55:43;;;;;;;4.57;4.13;;;29.90;89.10;;;;;;5014551;28;20480;-51
2021/06/16 11:58:28;;;;;;;4.37;3.90;;;29.90;88.90;;;;;;4995208;28;20797;-51
2021/06/16 12:01:09;;;;;;;3.90;3.60;;;29.70;89.30;;;;;;4994986;28;20498;-51
2021/06/16 12:03:36;;;;;;;4.20;3.90;;;29.90;91.90;;;;;;4994924;28;20457;-51
2021/06/16 12:06:06;;;;;;;5.10;3.63;;;29.90;91.00;;;;;;4997840;28;20525;-51
2021/06/16 12:08:34;;;;;;;5.90;3.67;;;30.00;90.00;;;;;;5014534;28;20449;-51
2021/06/16 12:11:02;;;;;;;3.93;3.63;;;29.60;91.20;;;;;;5012976;28;20507;-51
2021/06/16 12:13:29;;;;;;;3.67;3.37;;;29.80;88.70;;;;;;4994653;28;20454;-51
2021/06/16 12:15:57;;;;;;;3.93;3.67;;;30.00;91.70;;;;;;4995996;28;20540;-51
2021/06/16 12:18:25;;;;;;;7.60;4.00;;;30.30;91.00;;;;;;5013830;28;20454;-51
2021/06/16 12:20:54;;;;;;;3.90;3.50;;;30.20;92.10;;;;;;5014428;28;20572;-51
2021/06/16 12:23:35;;;;;;;3.90;3.63;;;30.50;87.60;;;;;;5013565;28;20468;-51
2021/06/16 12:26:05;;;;;;;4.77;3.60;;;30.90;91.40;;;;;;5008723;28;21030;-51
2021/06/16 12:28:34;;;;;;;4.70;4.30;;;30.50;90.30;;;;;;5013956;28;20967;-52
2021/06/16 12:31:01;;;;;;;3.60;3.40;;;30.80;86.90;;;;;;5008334;28;20438;-59
2021/06/16 12:33:42;;;;;;;4.23;3.57;;;30.50;88.30;;;;;;4994473;28;20493;-51
2021/06/16 12:36:18;;;;;;;4.30;3.90;;;30.20;87.00;;;;;;4997192;28;20539;-51
2021/06/16 12:38:49;;;;;;;3.93;3.60;;;30.00;89.80;;;;;;5013870;28;20450;-51
2021/06/16 12:41:34;;;;;;;3.40;3.10;;;30.20;89.50;;;;;;5013796;28;20481;-51
2021/06/16 12:44:22;;;;;;;5.50;3.50;;;30.70;86.40;;;;;;5013942;28;20460;-51
2021/06/16 12:46:57;;;;;;;3.77;3.40;;;31.00;82.90;;;;;;5013249;28;20458;-52
2021/06/16 12:49:26;;;;;;;3.80;3.50;;;30.90;84.80;;;;;;5011849;28;20507;-51
2021/06/16 12:51:55;;;;;;;14.47;3.50;;;30.70;89.90;;;;;;5013494;28;20449;-52
2021/06/16 12:54:32;;;;;;;8.53;3.77;;;30.60;90.10;;;;;;5013694;28;20445;-51
2021/06/16 12:57:06;;;;;;;3.40;3.20;;;30.30;82.70;;;;;;5013385;28;20452;-51
2021/06/16 12:59:38;;;;;;;3.43;2.90;;;30.20;85.10;;;;;;5013516;28;20491;-51